Terminal Aerodrome Forecast
Issued by NWS

Home | Current Version | Previous Version | Text Only | Print | Product List | Glossary On
Versions: 1 2 3 4 5 6 7 8 9 10 11 12 13 14 15 16 17 18 19 20 21 22 23 24 25 26 27 28 29 30 31 32 33 34 35
000
FTAK31 PANC 130525
TAFAAQ
TAF
PAAQ 130525Z 1306/1406 16006KT P6SM -SHRA SCT050 BKN080
      TEMPO 1306/1309 19008G16KT
     FM130900 VRB04KT P6SM VCSH BKN060 BKN100
     FM132100 17009KT P6SM VCSH BKN040 BKN080=

USA.gov is the U.S. government's official web portal to all federal, state and local government web resources and services.